createdAt,value
2019-03-28T14:19:22.637Z,3.00
2019-03-28T16:12:50.500Z,3.80
2019-03-28T16:15:36.136Z,3.73
2019-03-28T16:18:16.599Z,3.70
2019-03-28T16:21:19.505Z,3.10
2019-03-28T16:24:01.020Z,2.67
2019-03-28T18:28:25.630Z,4.23
2019-03-28T18:31:00.749Z,4.40
2019-03-28T18:33:36.615Z,5.27
2019-03-28T18:39:05.015Z,4.50
2019-03-28T18:41:39.987Z,5.10
2019-03-28T18:44:15.199Z,6.30
2019-03-28T18:49:35.023Z,7.53
2019-03-28T18:52:10.157Z,6.87
2019-03-28T18:54:45.210Z,6.70
2019-03-28T19:00:11.835Z,6.20
2019-03-28T19:02:47.158Z,5.77
2019-03-28T19:08:10.794Z,6.20
2019-03-28T19:10:45.696Z,6.37
2019-03-28T19:13:20.844Z,6.80
2019-03-28T19:15:59.166Z,8.40
2019-03-28T19:18:38.025Z,7.40
2019-03-28T19:23:55.518Z,7.67
2019-03-28T19:26:30.680Z,7.27
2019-03-28T19:29:05.779Z,7.10
2019-03-28T19:31:40.826Z,6.40
2019-03-28T19:37:02.061Z,7.73
2019-03-28T19:39:37.298Z,7.07
2019-03-28T19:42:12.367Z,7.00
2019-03-28T19:44:53.398Z,6.07
2019-03-28T19:47:30.474Z,5.63
2019-03-28T19:50:05.480Z,5.63
2019-03-28T19:55:50.277Z,6.60
2019-03-28T19:58:27.186Z,6.43
2019-03-28T20:01:02.084Z,6.10
2019-03-28T20:03:25.456Z,6.13
2019-03-28T20:06:21.343Z,6.10
2019-03-28T20:09:15.708Z,5.37
2019-03-28T20:11:42.944Z,5.63
2019-03-28T20:14:18.935Z,5.03
2019-03-28T20:16:54.182Z,4.80
2019-03-28T20:19:30.031Z,4.40
2019-03-28T20:22:05.180Z,4.30
2019-03-28T20:24:40.714Z,4.90
2019-03-28T20:27:16.952Z,4.43
2019-03-28T20:29:52.604Z,4.73
2019-03-28T20:32:29.489Z,4.33
2019-03-28T20:35:04.845Z,4.57
2019-03-28T20:37:40.389Z,5.50
2019-03-28T20:40:16.041Z,5.33
2019-03-28T20:42:55.646Z,6.03
2019-03-28T20:45:30.973Z,6.87
2019-03-28T20:48:07.606Z,5.70
2019-03-28T20:50:42.737Z,6.43
2019-03-28T20:53:17.921Z,6.40
2019-03-28T20:55:53.001Z,5.33
2019-03-28T20:58:28.849Z,6.03
2019-03-28T21:01:04.877Z,6.27
